Time;durP1;ratioP1;P1;durP2;ratioP2;P2;SDS_P1;SDS_P2;PMS_P1;PMS_P2;Temp;Humidity;BMP_temperature;BMP_pressure;BME280_temperature;BME280_humidity;BME280_pressure;Samples;Min_cycle;Max_cycle;Signal;HPM_P1;HPM_P2
2021/12/05 00:18:02;;;;;;;66.43;11.17;;;4.70;99.90;;;;;;5035314;28;20218;-80
2021/12/05 00:20:54;;;;;;;26.37;8.97;;;4.70;99.90;;;;;;5043663;28;20250;-89
2021/12/05 00:23:27;;;;;;;18.83;8.53;;;4.70;99.90;;;;;;5043591;28;20237;-85
2021/12/05 00:25:57;;;;;;;131.40;15.93;;;4.70;99.90;;;;;;5047182;28;20341;-87
2021/12/05 00:28:46;;;;;;;108.07;13.03;;;4.70;99.90;;;;;;5048485;28;20220;-87
2021/12/05 00:31:27;;;;;;;63.27;11.17;;;4.70;99.90;;;;;;5037246;28;20679;-86
2021/12/05 00:37:39;;;;;;;48.33;9.80;;;4.80;99.90;;;;;;5020632;28;20232;-85
2021/12/05 00:45:54;;;;;;;10.17;8.43;;;4.80;99.90;;;;;;5045727;28;20223;-85
2021/12/05 00:56:52;;;;;;;26.93;9.10;;;4.80;99.90;;;;;;5046294;28;20219;-86
2021/12/05 00:59:35;;;;;;;10.17;7.87;;;4.80;99.90;;;;;;5047950;28;20332;-85
2021/12/05 01:02:17;;;;;;;71.97;11.57;;;4.80;99.90;;;;;;5051601;28;20746;-88
2021/12/05 01:11:08;;;;;;;16.13;7.33;;;4.80;99.90;;;;;;4990257;28;20686;-88
2021/12/05 01:13:43;;;;;;;83.10;10.97;;;4.80;99.90;;;;;;5043151;28;20234;-87
2021/12/05 01:16:15;;;;;;;14.90;7.10;;;4.80;99.90;;;;;;5045000;28;20308;-86
2021/12/05 01:18:43;;;;;;;16.83;6.63;;;4.80;99.90;;;;;;5040916;28;20235;-84
2021/12/05 01:21:14;;;;;;;77.30;10.03;;;4.80;99.90;;;;;;5050250;28;20282;-85
2021/12/05 01:23:53;;;;;;;14.00;7.20;;;4.80;99.90;;;;;;5050270;28;20234;-86
2021/12/05 01:26:25;;;;;;;24.50;7.80;;;4.80;99.90;;;;;;5049670;28;20232;-86
2021/12/05 01:31:49;;;;;;;12.23;6.10;;;4.80;99.90;;;;;;5047910;28;20254;-86
2021/12/05 01:34:33;;;;;;;8.50;6.70;;;4.80;99.90;;;;;;5049059;28;20566;-86
2021/12/05 01:37:12;;;;;;;18.83;6.80;;;4.80;99.90;;;;;;5041863;28;20656;-86
2021/12/05 01:39:53;;;;;;;44.83;9.57;;;4.80;99.90;;;;;;5049107;28;20280;-87
2021/12/05 01:43:05;;;;;;;25.90;7.57;;;4.80;99.90;;;;;;5045089;28;20691;-87
2021/12/05 01:54:35;;;;;;;142.30;14.50;;;4.80;99.90;;;;;;5048555;28;20229;-87
2021/12/05 01:57:24;;;;;;;70.60;8.87;;;4.80;99.90;;;;;;5042262;28;20334;-87
2021/12/05 02:00:11;;;;;;;8.60;6.00;;;4.80;99.90;;;;;;5048349;28;20219;-87
2021/12/05 02:11:28;;;;;;;7.57;6.00;;;4.80;99.90;;;;;;5143429;27;20555;-88
2021/12/05 02:29:25;;;;;;;8.33;6.37;;;4.80;99.90;;;;;;5071922;28;20210;-88
2021/12/05 02:36:22;;;;;;;177.63;16.70;;;4.80;99.90;;;;;;5102908;28;20210;-87
2021/12/05 02:39:07;;;;;;;19.33;7.50;;;4.80;99.90;;;;;;5105806;28;20302;-87
2021/12/05 02:41:37;;;;;;;111.53;13.50;;;4.80;99.90;;;;;;5107025;28;20213;-86
2021/12/05 02:44:11;;;;;;;15.27;7.80;;;4.80;99.90;;;;;;5111653;28;20274;-86
2021/12/05 02:46:41;;;;;;;132.37;14.37;;;4.90;99.90;;;;;;5095200;28;20584;-86
2021/12/05 02:49:15;;;;;;;24.00;8.00;;;4.80;99.90;;;;;;5101736;28;20305;-85
2021/12/05 02:51:50;;;;;;;55.77;10.00;;;4.80;99.90;;;;;;5112462;28;20623;-87
2021/12/05 02:54:19;;;;;;;18.70;7.93;;;4.80;99.90;;;;;;5104175;28;20300;-87
2021/12/05 02:56:49;;;;;;;133.80;14.33;;;4.80;99.90;;;;;;5103994;28;20323;-87
2021/12/05 02:59:23;;;;;;;16.03;7.97;;;4.80;99.90;;;;;;5108303;28;20225;-88
2021/12/05 03:01:56;;;;;;;10.00;7.40;;;4.80;99.90;;;;;;5107924;28;20239;-88
2021/12/05 03:04:26;;;;;;;25.60;8.20;;;4.80;99.90;;;;;;5099426;28;20221;-88
2021/12/05 03:06:54;;;;;;;27.57;8.57;;;4.90;99.90;;;;;;5106940;28;20250;-87
2021/12/05 03:09:24;;;;;;;25.07;8.60;;;4.80;99.90;;;;;;5104172;28;20867;-85
2021/12/05 03:11:53;;;;;;;17.73;8.40;;;4.80;99.90;;;;;;5102278;28;20305;-85
2021/12/05 03:14:21;;;;;;;25.30;9.43;;;4.80;99.90;;;;;;5102211;28;20671;-84
2021/12/05 03:16:49;;;;;;;34.43;10.63;;;4.80;99.90;;;;;;5103841;28;20221;-87
2021/12/05 03:19:17;;;;;;;24.93;8.23;;;4.90;99.90;;;;;;5111813;27;20308;-86
2021/12/05 03:21:47;;;;;;;236.43;20.83;;;4.80;99.90;;;;;;5096843;28;20258;-87
2021/12/05 03:24:15;;;;;;;25.27;9.63;;;4.80;99.90;;;;;;5087264;28;20218;-87
2021/12/05 03:26:47;;;;;;;32.20;10.03;;;4.80;99.90;;;;;;5100369;28;20338;-87
2021/12/05 03:29:16;;;;;;;20.87;9.20;;;4.80;99.90;;;;;;5101249;28;20301;-87
2021/12/05 03:31:45;;;;;;;90.57;12.23;;;4.80;99.90;;;;;;5091235;28;20240;-87
2021/12/05 03:34:14;;;;;;;13.00;8.30;;;4.90;99.90;;;;;;5104289;28;20221;-87
2021/12/05 03:36:44;;;;;;;34.70;10.30;;;4.80;99.90;;;;;;5091569;28;20279;-88
2021/12/05 03:39:11;;;;;;;48.70;11.87;;;4.80;99.90;;;;;;5100752;28;20218;-87
2021/12/05 03:41:41;;;;;;;19.53;9.63;;;4.90;99.90;;;;;;5089458;28;20210;-87
2021/12/05 03:44:13;;;;;;;83.27;13.30;;;4.90;99.90;;;;;;5084354;28;20218;-87
2021/12/05 03:46:41;;;;;;;131.80;15.93;;;4.80;99.90;;;;;;5092238;28;20625;-87
2021/12/05 03:49:10;;;;;;;59.83;11.57;;;4.90;99.90;;;;;;5091720;28;20222;-87
2021/12/05 03:51:41;;;;;;;53.20;12.83;;;4.90;99.90;;;;;;5087685;28;20621;-87
2021/12/05 03:54:10;;;;;;;42.27;11.57;;;4.90;99.90;;;;;;5101270;28;20316;-87
2021/12/05 03:56:38;;;;;;;41.50;10.83;;;4.90;99.90;;;;;;5090796;28;20217;-87
2021/12/05 03:59:07;;;;;;;75.37;12.73;;;4.90;99.90;;;;;;5085460;28;20753;-87
2021/12/05 04:01:36;;;;;;;44.13;11.70;;;4.90;99.90;;;;;;5093827;28;20246;-87
2021/12/05 04:04:05;;;;;;;18.23;10.70;;;4.90;99.90;;;;;;5087026;28;20607;-87
2021/12/05 04:06:33;;;;;;;71.33;12.53;;;4.90;99.90;;;;;;5088866;28;20344;-87
2021/12/05 04:09:04;;;;;;;220.80;22.00;;;4.90;99.90;;;;;;5087325;28;20247;-87
2021/12/05 04:11:36;;;;;;;24.30;11.17;;;4.90;99.90;;;;;;5095952;28;20302;-88
2021/12/05 04:14:05;;;;;;;144.60;17.53;;;4.90;99.90;;;;;;5080614;28;20218;-86
2021/12/05 04:16:32;;;;;;;46.60;12.20;;;4.90;99.90;;;;;;5089284;28;20888;-86
2021/12/05 04:19:01;;;;;;;16.00;11.13;;;4.90;99.90;;;;;;5092713;28;20389;-87
2021/12/05 04:21:30;;;;;;;123.60;15.73;;;4.90;99.90;;;;;;5097515;28;20222;-87
2021/12/05 04:23:59;;;;;;;38.80;11.50;;;5.00;99.90;;;;;;5093379;28;20343;-87
2021/12/05 04:26:27;;;;;;;32.37;11.90;;;5.00;99.90;;;;;;5101047;28;20251;-87
2021/12/05 04:28:54;;;;;;;93.77;15.90;;;5.00;99.90;;;;;;5092453;28;20247;-87
2021/12/05 04:31:21;;;;;;;21.20;11.07;;;5.00;99.90;;;;;;5094001;28;20230;-87
2021/12/05 04:33:49;;;;;;;164.23;19.40;;;4.90;99.90;;;;;;5093979;28;20210;-87
2021/12/05 04:36:18;;;;;;;92.97;15.37;;;5.00;99.90;;;;;;5091126;28;20561;-87
2021/12/05 04:38:45;;;;;;;145.20;17.93;;;5.00;99.90;;;;;;5108314;28;20290;-87
2021/12/05 04:41:12;;;;;;;23.80;11.63;;;5.00;99.90;;;;;;5103713;28;20316;-87
2021/12/05 04:43:39;;;;;;;76.73;13.97;;;4.90;99.90;;;;;;5097882;28;20263;-87
2021/12/05 04:46:14;;;;;;;28.67;12.17;;;4.90;99.90;;;;;;5092789;28;20324;-86
2021/12/05 04:48:43;;;;;;;109.47;16.80;;;4.90;99.90;;;;;;5091221;28;20651;-85
2021/12/05 04:51:10;;;;;;;123.80;17.10;;;5.00;99.90;;;;;;5101224;28;20666;-86
2021/12/05 04:53:39;;;;;;;26.33;11.93;;;5.00;99.90;;;;;;5092863;28;20301;-83
2021/12/05 04:56:07;;;;;;;40.53;13.23;;;5.00;99.90;;;;;;5087328;28;20222;-86
2021/12/05 04:58:34;;;;;;;70.23;14.60;;;5.00;99.90;;;;;;5096035;28;20222;-87
2021/12/05 05:01:01;;;;;;;19.67;11.10;;;5.00;99.90;;;;;;5089980;28;20304;-86
2021/12/05 05:03:29;;;;;;;42.73;13.23;;;5.00;99.90;;;;;;5087995;28;20282;-85
2021/12/05 05:06:02;;;;;;;222.73;23.87;;;5.00;99.90;;;;;;5086545;28;20573;-85
2021/12/05 05:08:30;;;;;;;24.67;12.43;;;5.00;99.90;;;;;;5093110;28;20305;-85
2021/12/05 05:11:00;;;;;;;116.10;17.67;;;5.00;99.90;;;;;;5086752;28;20716;-87
2021/12/05 05:13:27;;;;;;;23.13;12.43;;;5.00;99.90;;;;;;5088097;28;20274;-87
2021/12/05 05:15:54;;;;;;;68.33;14.87;;;4.90;99.90;;;;;;5088726;28;20263;-86
2021/12/05 05:18:21;;;;;;;31.30;12.80;;;5.00;99.90;;;;;;5089309;28;20229;-85
2021/12/05 05:20:55;;;;;;;105.20;15.90;;;4.90;99.90;;;;;;5091873;28;20264;-85
2021/12/05 05:23:40;;;;;;;204.23;23.13;;;4.90;99.90;;;;;;5081759;28;20214;-86
2021/12/05 05:29:26;;;;;;;123.17;18.30;;;4.90;99.90;;;;;;5084979;28;20240;-85
2021/12/05 05:40:23;;;;;;;232.57;24.33;;;4.90;99.90;;;;;;5093415;28;20217;-85
2021/12/05 05:43:13;;;;;;;78.20;15.77;;;4.90;99.90;;;;;;5081397;28;20223;-83
2021/12/05 05:45:52;;;;;;;76.00;16.40;;;4.90;99.90;;;;;;5076800;28;20242;-82
2021/12/05 05:48:35;;;;;;;78.97;16.67;;;4.90;99.90;;;;;;5097064;28;20218;-82
2021/12/05 05:51:04;;;;;;;41.70;14.00;;;4.90;99.90;;;;;;5091022;28;20228;-82
2021/12/05 05:53:31;;;;;;;73.40;16.17;;;4.90;99.90;;;;;;5084745;28;20221;-83
2021/12/05 05:55:59;;;;;;;206.47;23.13;;;4.90;99.90;;;;;;5085056;28;20222;-85
2021/12/05 05:58:37;;;;;;;144.20;19.67;;;4.90;99.90;;;;;;5082914;28;20214;-85
2021/12/05 06:01:06;;;;;;;52.27;14.67;;;4.90;99.90;;;;;;5078801;28;20233;-86
2021/12/05 06:03:33;;;;;;;86.03;16.73;;;4.90;99.90;;;;;;5085519;28;20282;-85
2021/12/05 06:06:06;;;;;;;34.97;14.27;;;4.90;99.90;;;;;;5086289;28;20236;-85
2021/12/05 06:08:36;;;;;;;107.00;18.47;;;4.90;99.90;;;;;;5082423;28;20221;-84
2021/12/05 06:11:05;;;;;;;39.50;14.07;;;4.90;99.90;;;;;;5089717;28;20233;-84
2021/12/05 06:13:34;;;;;;;36.87;13.93;;;4.90;99.90;;;;;;5091720;28;20254;-83
2021/12/05 06:16:02;;;;;;;118.17;19.07;;;4.90;99.90;;;;;;5089632;28;20232;-84
2021/12/05 06:18:29;;;;;;;32.10;13.53;;;4.90;99.90;;;;;;5088734;28;20272;-83
2021/12/05 06:20:57;;;;;;;36.70;13.87;;;4.90;99.90;;;;;;5087669;28;20221;-82
2021/12/05 06:23:24;;;;;;;26.20;13.53;;;4.90;99.90;;;;;;5085076;28;20560;-83
2021/12/05 06:25:53;;;;;;;164.63;20.93;;;4.90;99.90;;;;;;5094109;28;20225;-83
2021/12/05 06:28:28;;;;;;;53.40;15.23;;;4.90;99.90;;;;;;5085756;28;20211;-83
2021/12/05 06:31:02;;;;;;;69.70;15.87;;;4.90;99.90;;;;;;5094329;28;20231;-84
2021/12/05 06:39:20;;;;;;;97.50;17.80;;;5.00;99.90;;;;;;5085743;28;20210;-84
2021/12/05 06:41:55;;;;;;;70.37;15.70;;;5.00;99.90;;;;;;5087215;28;20408;-85
2021/12/05 06:47:26;;;;;;;54.33;15.20;;;5.00;99.90;;;;;;5008374;28;20363;-87
2021/12/05 06:49:54;;;;;;;58.77;16.43;;;5.00;99.90;;;;;;5003902;28;20295;-86
2021/12/05 06:52:21;;;;;;;23.27;14.23;;;5.00;99.90;;;;;;5040687;28;20231;-87
2021/12/05 06:54:48;;;;;;;67.57;16.67;;;5.00;99.90;;;;;;5085660;28;20259;-86
2021/12/05 06:57:18;;;;;;;23.37;14.20;;;5.00;99.90;;;;;;5088623;28;20696;-88
2021/12/05 06:59:48;;;;;;;261.70;26.50;;;5.00;99.90;;;;;;5090421;28;20755;-85
2021/12/05 07:02:18;;;;;;;40.33;14.63;;;5.00;99.90;;;;;;5094029;28;20230;-87
2021/12/05 07:05:13;;;;;;;26.00;13.87;;;5.00;99.90;;;;;;5091674;28;20231;-89
2021/12/05 07:07:41;;;;;;;24.67;13.23;;;5.00;99.90;;;;;;5089193;28;20229;-87
2021/12/05 07:10:10;;;;;;;48.73;14.20;;;5.00;99.90;;;;;;5088331;28;20230;-87
2021/12/05 07:15:27;;;;;;;141.17;20.07;;;5.00;99.90;;;;;;5083379;28;20215;-88
2021/12/05 07:20:52;;;;;;;98.77;18.17;;;5.00;99.90;;;;;;5087278;28;20242;-89
2021/12/05 07:23:31;;;;;;;40.40;14.97;;;5.00;99.90;;;;;;5085957;28;20226;-88
2021/12/05 07:26:09;;;;;;;50.93;14.90;;;5.00;99.90;;;;;;5081803;28;20222;-88
2021/12/05 07:42:23;;;;;;;215.93;24.83;;;5.00;99.90;;;;;;5083630;28;20213;-89
2021/12/05 07:44:50;;;;;;;70.80;17.07;;;5.00;99.90;;;;;;5084558;28;20218;-89
2021/12/05 07:47:19;;;;;;;69.67;16.87;;;5.00;99.90;;;;;;5087088;28;20218;-87
2021/12/05 07:49:47;;;;;;;85.30;16.43;;;5.00;99.90;;;;;;5083772;28;20234;-88
2021/12/05 07:52:20;;;;;;;20.37;12.93;;;5.00;99.90;;;;;;5082225;28;20221;-88
2021/12/05 07:54:53;;;;;;;33.33;13.90;;;5.00;99.90;;;;;;5084772;28;20284;-87
2021/12/05 07:57:24;;;;;;;34.83;15.13;;;5.00;99.90;;;;;;5083370;28;20220;-88
2021/12/05 08:00:05;;;;;;;49.87;15.27;;;5.00;99.90;;;;;;5089330;28;20233;-87
2021/12/05 08:16:18;;;;;;;18.93;13.13;;;5.10;99.90;;;;;;5093557;28;20893;-89
2021/12/05 08:18:45;;;;;;;38.97;14.40;;;5.00;99.90;;;;;;5087971;28;20223;-88
2021/12/05 08:21:13;;;;;;;23.00;12.97;;;5.00;99.90;;;;;;5081989;28;20225;-88
2021/12/05 08:23:41;;;;;;;37.30;13.97;;;5.00;99.90;;;;;;5084518;28;20219;-87
2021/12/05 08:26:12;;;;;;;24.00;14.23;;;5.00;99.90;;;;;;5091216;28;20283;-86
2021/12/05 08:29:05;;;;;;;63.37;15.50;;;5.00;99.90;;;;;;5088831;28;20248;-85
2021/12/05 08:31:45;;;;;;;24.23;13.93;;;5.00;99.90;;;;;;5083846;28;20222;-85
2021/12/05 08:34:34;;;;;;;27.07;13.97;;;5.10;99.90;;;;;;5080764;28;20214;-87
2021/12/05 08:43:03;;;;;;;97.73;17.60;;;5.00;99.90;;;;;;5015962;28;20251;-88
2021/12/05 08:45:52;;;;;;;45.53;14.50;;;5.00;99.90;;;;;;5077389;28;20226;-84
2021/12/05 09:24:24;;;;;;;198.00;25.17;;;5.00;99.90;;;;;;5087100;28;20210;-87
2021/12/05 09:27:26;;;;;;;106.20;18.93;;;5.00;99.90;;;;;;5083489;28;20226;-88
2021/12/05 10:03:06;;;;;;;73.17;16.03;;;5.10;99.90;;;;;;5092535;28;20214;-84
2021/12/05 10:08:45;;;;;;;43.50;14.83;;;5.10;99.90;;;;;;5053833;28;20233;-83
2021/12/05 10:11:25;;;;;;;32.50;14.40;;;5.10;99.90;;;;;;5082583;28;20335;-84
2021/12/05 10:14:12;;;;;;;21.37;13.50;;;5.10;99.90;;;;;;5088410;28;20240;-84
2021/12/05 10:17:18;;;;;;;60.77;14.97;;;5.10;99.90;;;;;;5080048;28;20210;-83
2021/12/05 10:20:15;;;;;;;25.47;15.43;;;5.10;99.90;;;;;;5096425;28;20224;-83
2021/12/05 10:34:29;;;;;;;197.60;34.90;;;5.20;99.90;;;;;;5087852;28;20569;-83
2021/12/05 10:37:09;;;;;;;27.63;16.87;;;5.30;99.90;;;;;;5095181;28;20225;-83
2021/12/05 10:39:36;;;;;;;29.70;17.00;;;5.30;99.90;;;;;;5081147;28;20588;-83
2021/12/05 10:42:24;;;;;;;66.87;17.87;;;5.40;99.90;;;;;;5091526;28;20331;-82
2021/12/05 10:44:51;;;;;;;38.03;16.23;;;5.40;99.90;;;;;;5094926;28;20236;-82
2021/12/05 10:47:37;;;;;;;27.97;16.53;;;5.50;99.90;;;;;;5085283;28;20236;-82
2021/12/05 10:50:32;;;;;;;31.30;16.03;;;5.50;99.90;;;;;;5085378;28;20238;-82
2021/12/05 10:53:24;;;;;;;66.37;18.60;;;5.60;99.90;;;;;;5087232;28;20286;-81
2021/12/05 10:55:57;;;;;;;69.73;17.50;;;5.60;99.90;;;;;;5090657;28;20226;-81
2021/12/05 10:58:29;;;;;;;30.87;16.33;;;5.70;99.90;;;;;;5088005;28;20213;-81
2021/12/05 11:01:04;;;;;;;24.23;16.67;;;5.80;99.90;;;;;;5085273;28;20270;-80
2021/12/05 11:03:31;;;;;;;39.17;18.73;;;5.80;99.90;;;;;;5084410;28;20219;-80
2021/12/05 11:05:58;;;;;;;54.40;18.83;;;6.00;99.90;;;;;;5089260;28;20222;-80
2021/12/05 11:08:35;;;;;;;61.87;20.00;;;6.00;99.90;;;;;;5085802;28;20236;-81
2021/12/05 11:11:10;;;;;;;190.60;28.03;;;6.10;99.90;;;;;;5092308;28;20697;-80
2021/12/05 11:13:38;;;;;;;61.63;19.97;;;6.10;99.90;;;;;;5090415;28;20222;-80
2021/12/05 11:16:26;;;;;;;38.73;19.13;;;6.20;99.90;;;;;;5091544;28;20891;-80
2021/12/05 11:18:54;;;;;;;31.33;18.40;;;6.30;99.90;;;;;;5086833;28;20234;-80
2021/12/05 11:21:34;;;;;;;23.33;16.33;;;6.30;99.90;;;;;;5085401;28;20223;-81
2021/12/05 11:24:05;;;;;;;24.93;17.00;;;6.30;99.90;;;;;;5089777;28;20257;-81
2021/12/05 11:26:32;;;;;;;23.67;16.97;;;6.30;99.90;;;;;;5093659;28;20237;-80
2021/12/05 11:28:59;;;;;;;30.83;19.97;;;6.30;99.90;;;;;;5085673;28;20219;-81
2021/12/05 11:31:28;;;;;;;68.33;19.93;;;6.30;99.90;;;;;;5089860;28;20229;-82
2021/12/05 11:33:56;;;;;;;60.50;19.43;;;6.30;99.90;;;;;;5089509;28;20214;-81
2021/12/05 11:36:25;;;;;;;24.53;17.07;;;6.30;99.90;;;;;;5093229;28;20226;-80
2021/12/05 11:38:52;;;;;;;36.00;19.03;;;6.40;99.90;;;;;;5088646;28;20215;-80
2021/12/05 11:41:20;;;;;;;40.43;19.97;;;6.30;99.90;;;;;;5086751;28;20220;-81
2021/12/05 11:43:51;;;;;;;30.03;18.67;;;6.40;99.90;;;;;;5087883;28;20249;-81
2021/12/05 11:46:20;;;;;;;38.60;18.97;;;6.40;99.90;;;;;;5086941;28;20767;-81
2021/12/05 11:48:49;;;;;;;38.80;18.93;;;6.40;99.90;;;;;;5087109;28;21056;-80
2021/12/05 11:51:28;;;;;;;27.70;18.77;;;6.40;99.90;;;;;;5087716;28;20222;-82
2021/12/05 11:53:57;;;;;;;28.00;18.70;;;6.40;99.90;;;;;;5085292;28;20218;-81
2021/12/05 11:56:38;;;;;;;33.93;19.23;;;6.40;99.90;;;;;;5081968;28;20961;-81
2021/12/05 11:59:08;;;;;;;29.57;18.93;;;6.40;99.90;;;;;;5079263;28;20210;-82
2021/12/05 12:01:37;;;;;;;30.03;18.07;;;6.40;99.90;;;;;;5085289;28;20225;-81
2021/12/05 12:04:04;;;;;;;36.23;19.37;;;6.40;99.90;;;;;;5081453;28;20227;-80
2021/12/05 12:06:33;;;;;;;38.20;20.03;;;6.30;99.90;;;;;;5085569;28;20297;-81
2021/12/05 12:09:00;;;;;;;33.93;21.00;;;6.30;99.90;;;;;;5084611;28;20223;-81
2021/12/05 12:11:27;;;;;;;41.23;19.83;;;6.30;99.90;;;;;;5084170;28;20223;-79
2021/12/05 12:13:54;;;;;;;65.70;23.67;;;6.30;99.90;;;;;;5083430;28;20265;-78
2021/12/05 12:16:22;;;;;;;55.77;31.30;;;6.30;99.90;;;;;;5085853;28;20214;-78
2021/12/05 12:18:51;;;;;;;91.20;33.00;;;6.20;99.90;;;;;;5083698;28;20984;-79
2021/12/05 12:21:21;;;;;;;32.27;21.03;;;6.10;99.90;;;;;;5084923;28;20249;-79
2021/12/05 12:23:54;;;;;;;51.93;20.87;;;6.10;99.90;;;;;;5088297;28;20326;-79
2021/12/05 12:26:21;;;;;;;56.37;20.03;;;6.00;99.90;;;;;;5106560;28;20324;-79
2021/12/05 12:28:48;;;;;;;42.00;20.93;;;6.00;99.90;;;;;;5104955;28;20228;-79
2021/12/05 12:31:21;;;;;;;28.90;19.23;;;6.00;99.90;;;;;;5104465;28;20343;-79
2021/12/05 12:33:52;;;;;;;28.73;19.60;;;5.90;99.90;;;;;;5105287;28;20880;-79
2021/12/05 12:36:36;;;;;;;30.40;20.63;;;5.90;99.90;;;;;;5103327;28;20265;-79
2021/12/05 12:39:06;;;;;;;40.37;21.33;;;5.90;99.90;;;;;;5106432;28;20209;-79
2021/12/05 12:41:34;;;;;;;66.30;23.10;;;5.90;99.90;;;;;;5105796;28;20306;-79
2021/12/05 12:44:04;;;;;;;139.37;25.00;;;5.90;99.90;;;;;;5104173;28;20259;-79
2021/12/05 12:46:34;;;;;;;28.03;19.60;;;5.90;99.90;;;;;;5104240;28;20268;-79
2021/12/05 12:49:29;;;;;;;60.93;21.77;;;6.00;99.90;;;;;;5103682;28;20232;-78
2021/12/05 12:51:59;;;;;;;32.73;20.47;;;6.00;99.90;;;;;;5103874;28;20867;-78
2021/12/05 12:54:32;;;;;;;30.10;20.20;;;6.00;99.90;;;;;;5102634;28;20251;-78
2021/12/05 12:57:08;;;;;;;33.00;21.50;;;5.90;99.90;;;;;;5106111;28;20223;-78
2021/12/05 12:59:39;;;;;;;28.30;18.80;;;5.90;99.90;;;;;;5102749;28;20231;-79
2021/12/05 13:10:39;;;;;;;30.93;20.87;;;5.80;99.90;;;;;;5103819;28;20323;-78
2021/12/05 13:13:15;;;;;;;31.17;20.70;;;5.80;99.90;;;;;;5102434;28;20226;-79
2021/12/05 13:15:47;;;;;;;31.03;19.30;;;5.80;99.90;;;;;;5103454;28;20231;-79
2021/12/05 13:18:26;;;;;;;33.10;20.20;;;5.70;99.90;;;;;;5103106;28;20225;-79
2021/12/05 13:20:57;;;;;;;65.50;21.43;;;5.70;99.90;;;;;;5104246;28;20227;-78
2021/12/05 13:23:36;;;;;;;29.30;19.70;;;5.60;99.90;;;;;;5103144;28;20654;-78
2021/12/05 13:26:19;;;;;;;40.07;20.33;;;5.60;99.90;;;;;;5102728;28;20226;-79
2021/12/05 13:28:50;;;;;;;29.03;18.37;;;5.60;99.90;;;;;;5102852;28;20363;-79
2021/12/05 13:31:49;;;;;;;30.90;18.33;;;5.60;99.90;;;;;;5102956;28;20284;-79
2021/12/05 13:34:29;;;;;;;26.37;18.47;;;5.60;99.90;;;;;;5103080;28;20333;-78
2021/12/05 13:37:01;;;;;;;25.50;17.23;;;5.60;99.90;;;;;;5103096;28;20230;-78
2021/12/05 13:39:43;;;;;;;27.07;16.27;;;5.50;99.90;;;;;;5104857;28;20297;-79
2021/12/05 13:42:16;;;;;;;25.00;17.97;;;5.50;99.90;;;;;;5105020;27;20634;-80
2021/12/05 13:45:08;;;;;;;27.77;17.57;;;5.50;99.90;;;;;;5102749;28;20300;-80
2021/12/05 13:47:39;;;;;;;54.43;18.57;;;5.50;99.90;;;;;;5104824;28;20217;-80
2021/12/05 13:50:28;;;;;;;39.33;18.23;;;5.40;99.90;;;;;;5104334;28;20228;-80
2021/12/05 13:52:59;;;;;;;35.73;18.23;;;5.40;99.90;;;;;;5105406;28;20246;-79
2021/12/05 13:55:36;;;;;;;26.30;17.30;;;5.40;99.90;;;;;;5103234;28;20757;-80
2021/12/05 13:58:23;;;;;;;26.27;16.63;;;5.40;99.90;;;;;;5089749;28;20226;-80
2021/12/05 14:01:00;;;;;;;32.63;18.07;;;5.40;99.90;;;;;;5081187;28;20257;-80
2021/12/05 14:03:50;;;;;;;46.47;18.77;;;5.40;99.90;;;;;;5082009;28;20691;-80
2021/12/05 14:06:38;;;;;;;68.27;20.37;;;5.40;99.90;;;;;;5082410;28;20341;-80
2021/12/05 14:09:09;;;;;;;36.07;17.80;;;5.40;99.90;;;;;;5082462;28;20291;-80
2021/12/05 14:11:41;;;;;;;24.20;17.20;;;5.30;99.90;;;;;;5093090;28;20218;-80
2021/12/05 14:14:10;;;;;;;29.87;17.10;;;5.30;99.90;;;;;;5101563;28;20241;-80
2021/12/05 14:16:39;;;;;;;25.43;16.93;;;5.30;99.90;;;;;;5102977;28;20244;-80
2021/12/05 14:19:09;;;;;;;199.50;28.23;;;5.20;99.90;;;;;;5104122;28;20999;-80
2021/12/05 14:21:40;;;;;;;32.70;17.23;;;5.10;99.90;;;;;;5105054;28;20323;-80
2021/12/05 14:24:07;;;;;;;133.73;23.70;;;5.10;99.90;;;;;;5104673;28;20304;-80
2021/12/05 14:26:38;;;;;;;25.83;15.97;;;5.00;99.90;;;;;;5102467;28;20301;-80
2021/12/05 14:29:07;;;;;;;25.73;16.80;;;5.00;99.90;;;;;;5101683;28;20332;-80
2021/12/05 14:31:38;;;;;;;28.03;17.37;;;4.90;99.90;;;;;;5084166;28;20234;-80
2021/12/05 14:34:05;;;;;;;24.03;15.23;;;4.90;99.90;;;;;;5084516;28;20961;-80
2021/12/05 14:36:36;;;;;;;24.13;15.40;;;4.80;99.90;;;;;;5082304;28;20253;-80
2021/12/05 14:39:13;;;;;;;27.30;15.83;;;4.80;99.90;;;;;;5081597;28;20229;-79
2021/12/05 14:41:42;;;;;;;48.40;16.77;;;4.70;99.90;;;;;;5083085;28;20255;-80
2021/12/05 14:44:09;;;;;;;25.67;15.50;;;4.60;99.90;;;;;;5103102;28;20251;-80
2021/12/05 14:46:47;;;;;;;24.10;15.50;;;4.60;99.90;;;;;;5104903;28;20221;-80
2021/12/05 14:49:15;;;;;;;25.80;15.90;;;4.60;99.90;;;;;;5102513;28;20232;-79
2021/12/05 14:51:44;;;;;;;22.50;15.77;;;4.50;99.90;;;;;;5101198;28;20228;-80
2021/12/05 14:54:17;;;;;;;26.13;15.47;;;4.50;99.90;;;;;;5103236;28;20712;-80
2021/12/05 14:56:44;;;;;;;22.77;15.50;;;4.50;99.90;;;;;;5103762;28;20322;-80
2021/12/05 14:59:13;;;;;;;23.53;15.10;;;4.50;99.90;;;;;;5103001;28;20720;-80
2021/12/05 15:01:43;;;;;;;49.63;16.70;;;4.40;99.90;;;;;;5102924;28;20236;-80
2021/12/05 15:04:12;;;;;;;22.83;15.20;;;4.50;99.90;;;;;;5102476;28;20227;-80
2021/12/05 15:06:46;;;;;;;24.13;15.80;;;4.40;99.90;;;;;;5103303;28;20248;-80
2021/12/05 15:09:19;;;;;;;439.63;39.10;;;4.40;99.90;;;;;;5084186;28;20243;-80
2021/12/05 15:11:56;;;;;;;23.47;14.70;;;4.30;99.90;;;;;;5086477;28;20217;-80
2021/12/05 15:14:23;;;;;;;23.43;15.17;;;4.30;99.90;;;;;;5084170;28;20560;-80
2021/12/05 15:17:02;;;;;;;69.87;17.63;;;4.30;99.90;;;;;;5084445;28;20216;-80
2021/12/05 15:19:33;;;;;;;23.13;14.70;;;4.30;99.90;;;;;;5093347;28;20684;-80
2021/12/05 15:22:02;;;;;;;24.60;15.80;;;4.30;99.90;;;;;;5087237;28;20264;-81
2021/12/05 15:24:30;;;;;;;23.67;15.17;;;4.40;99.90;;;;;;5096678;28;20324;-80
2021/12/05 15:27:00;;;;;;;89.63;19.27;;;4.30;99.90;;;;;;5095635;28;20254;-80
2021/12/05 15:29:30;;;;;;;27.77;14.53;;;4.40;99.90;;;;;;5095565;28;20233;-80
2021/12/05 15:31:58;;;;;;;86.50;19.67;;;4.40;99.90;;;;;;5090502;28;20286;-80
2021/12/05 15:34:33;;;;;;;22.20;14.43;;;4.30;99.90;;;;;;5073229;28;20252;-80
2021/12/05 15:37:09;;;;;;;255.30;28.40;;;4.30;99.90;;;;;;5082813;28;20312;-79
2021/12/05 15:39:37;;;;;;;29.63;15.87;;;4.30;99.90;;;;;;5092206;28;20218;-80
2021/12/05 15:42:15;;;;;;;21.67;14.00;;;4.30;99.90;;;;;;5085837;28;20222;-80
2021/12/05 15:44:43;;;;;;;24.47;14.77;;;4.30;99.90;;;;;;5087961;28;20832;-80
2021/12/05 15:47:13;;;;;;;27.03;15.13;;;4.30;99.90;;;;;;5090496;28;20699;-80
2021/12/05 15:50:01;;;;;;;23.67;14.47;;;4.30;99.90;;;;;;5088479;28;20938;-80
2021/12/05 15:52:33;;;;;;;30.37;14.90;;;4.30;99.90;;;;;;5093472;28;20232;-80
2021/12/05 15:55:01;;;;;;;23.50;14.53;;;4.30;99.90;;;;;;5094446;28;20237;-80
2021/12/05 15:57:32;;;;;;;23.10;14.53;;;4.30;99.90;;;;;;5102483;28;20674;-80
2021/12/05 16:00:04;;;;;;;127.17;20.67;;;4.30;99.90;;;;;;5081460;28;20229;-80
2021/12/05 16:02:32;;;;;;;23.07;15.47;;;4.20;99.90;;;;;;5076749;28;20611;-79
2021/12/05 16:05:00;;;;;;;27.80;15.10;;;4.20;99.90;;;;;;5084872;28;20273;-78
2021/12/05 16:07:32;;;;;;;51.70;15.80;;;4.20;99.90;;;;;;5090743;28;20232;-81
2021/12/05 16:10:19;;;;;;;52.47;17.23;;;4.30;99.90;;;;;;5084626;28;20233;-80
2021/12/05 16:12:47;;;;;;;38.73;16.60;;;4.20;99.90;;;;;;5076745;28;20231;-81
2021/12/05 16:15:16;;;;;;;23.40;15.07;;;4.20;99.90;;;;;;5080316;28;20223;-80
2021/12/05 16:17:54;;;;;;;24.60;14.53;;;4.20;99.90;;;;;;5084977;28;20869;-80
2021/12/05 16:20:25;;;;;;;40.77;16.30;;;4.30;99.90;;;;;;5088545;28;20986;-80
2021/12/05 16:23:13;;;;;;;103.30;20.03;;;4.30;99.90;;;;;;5084073;28;20994;-80
2021/12/05 16:25:47;;;;;;;136.87;21.17;;;4.30;99.90;;;;;;5070032;28;20239;-80
2021/12/05 16:28:15;;;;;;;42.30;16.57;;;4.30;99.90;;;;;;5084368;28;20227;-81
2021/12/05 16:30:45;;;;;;;47.60;16.63;;;4.30;99.90;;;;;;5083051;28;20318;-80
2021/12/05 16:33:14;;;;;;;26.93;16.03;;;4.40;99.90;;;;;;5085941;28;20225;-81
2021/12/05 16:35:48;;;;;;;158.73;24.27;;;4.40;99.90;;;;;;5085704;28;20306;-80
2021/12/05 16:38:26;;;;;;;24.53;15.63;;;4.40;99.90;;;;;;5085222;28;20316;-81
2021/12/05 16:41:00;;;;;;;25.73;15.63;;;4.40;99.90;;;;;;5083171;28;20229;-80
2021/12/05 16:43:31;;;;;;;25.53;15.87;;;4.40;99.90;;;;;;5084639;28;20224;-80
2021/12/05 16:46:09;;;;;;;26.97;16.23;;;4.40;99.90;;;;;;5085195;28;20249;-80
2021/12/05 16:48:38;;;;;;;27.37;17.13;;;4.40;99.90;;;;;;5084561;28;20287;-81
2021/12/05 16:51:26;;;;;;;29.40;16.57;;;4.40;99.90;;;;;;5083864;28;20224;-81
2021/12/05 16:54:00;;;;;;;96.87;20.47;;;4.40;99.90;;;;;;5082488;28;20232;-81
2021/12/05 16:56:44;;;;;;;36.37;17.57;;;4.50;99.90;;;;;;5080046;28;21101;-79
2021/12/05 16:59:15;;;;;;;27.30;16.87;;;4.50;99.90;;;;;;5076924;28;20219;-80